createdAt,value
2023-09-30T00:00:02.010Z,18.67
2023-09-30T00:01:01.899Z,16.93
2023-09-30T00:02:01.838Z,16.10
2023-09-30T00:03:01.780Z,16.07
2023-09-30T00:04:01.877Z,16.07
2023-09-30T00:05:01.261Z,17.67
2023-09-30T00:06:01.299Z,16.07
2023-09-30T00:07:01.968Z,17.60
2023-09-30T00:08:01.238Z,17.20
2023-09-30T00:09:01.931Z,18.03
2023-09-30T00:10:02.730Z,17.97
2023-09-30T00:11:01.616Z,17.83
2023-09-30T00:12:01.666Z,18.10
2023-09-30T00:13:01.669Z,17.13
2023-09-30T00:14:01.699Z,17.97
2023-09-30T00:15:01.707Z,19.27
2023-09-30T00:16:01.611Z,18.87
2023-09-30T00:17:01.447Z,16.90
2023-09-30T00:18:01.774Z,18.03
2023-09-30T00:19:01.563Z,18.40
2023-09-30T00:20:01.600Z,18.57
2023-09-30T00:21:01.349Z,19.90
2023-09-30T00:22:01.717Z,19.63
2023-09-30T00:23:01.299Z,17.93
2023-09-30T00:24:01.949Z,17.03
2023-09-30T00:25:01.619Z,17.50
2023-09-30T00:26:01.939Z,17.13
2023-09-30T00:27:01.688Z,18.00
2023-09-30T00:28:01.689Z,14.67
2023-09-30T00:29:01.630Z,17.13
2023-09-30T00:30:01.304Z,16.80
2023-09-30T00:31:01.723Z,16.87
2023-09-30T00:32:01.323Z,16.30
2023-09-30T00:33:01.371Z,17.03
2023-09-30T00:34:01.319Z,15.97
2023-09-30T00:35:02.296Z,16.73
2023-09-30T00:36:06.971Z,17.40
2023-09-30T00:37:01.341Z,16.80
2023-09-30T00:38:01.705Z,16.53
2023-09-30T00:39:01.768Z,16.20
2023-09-30T00:40:01.711Z,17.70
2023-09-30T00:41:01.670Z,14.67
2023-09-30T00:42:01.709Z,16.70
2023-09-30T00:43:01.724Z,17.83
2023-09-30T00:44:01.314Z,16.43
2023-09-30T00:45:01.245Z,17.17
2023-09-30T00:46:04.762Z,17.93
2023-09-30T00:47:01.999Z,17.60
2023-09-30T00:48:01.881Z,17.13
2023-09-30T00:49:02.525Z,16.73
2023-09-30T00:50:02.424Z,18.20
2023-09-30T00:51:02.742Z,18.13
2023-09-30T00:52:01.355Z,16.50
2023-09-30T00:53:01.620Z,19.13
2023-09-30T00:54:02.022Z,16.97
2023-09-30T00:55:01.879Z,16.67
2023-09-30T00:56:02.308Z,16.70
2023-09-30T00:57:02.107Z,16.50
2023-09-30T00:58:01.356Z,18.03
2023-09-30T00:59:01.482Z,14.63
2023-09-30T01:00:02.383Z,16.37
2023-09-30T01:01:01.624Z,18.27
2023-09-30T01:02:03.044Z,17.23
2023-09-30T01:03:01.400Z,16.73
2023-09-30T01:04:02.115Z,15.60
2023-09-30T01:05:01.676Z,17.40
2023-09-30T01:06:01.651Z,16.07
2023-09-30T01:07:01.669Z,15.80
2023-09-30T01:08:02.859Z,17.20
2023-09-30T01:09:01.876Z,17.47
2023-09-30T01:10:01.807Z,17.33
2023-09-30T01:11:01.955Z,14.90
2023-09-30T01:12:01.303Z,17.17
2023-09-30T01:13:01.237Z,16.27
2023-09-30T01:14:01.721Z,15.87
2023-09-30T01:15:01.244Z,17.60
2023-09-30T01:16:04.056Z,16.47
2023-09-30T01:17:02.292Z,16.23
2023-09-30T01:18:01.295Z,17.87
2023-09-30T01:19:01.475Z,16.60
2023-09-30T01:20:02.008Z,17.73
2023-09-30T01:21:03.692Z,17.90
2023-09-30T01:22:01.360Z,16.97
2023-09-30T01:23:02.350Z,17.23
2023-09-30T01:24:01.240Z,17.93
2023-09-30T01:25:01.263Z,17.00
2023-09-30T01:26:01.966Z,18.17
2023-09-30T01:27:01.349Z,17.23
2023-09-30T01:28:01.242Z,17.37
2023-09-30T01:29:01.673Z,17.97
2023-09-30T01:30:01.452Z,17.27
2023-09-30T01:31:01.777Z,16.10
2023-09-30T01:32:01.348Z,16.37
2023-09-30T01:33:01.378Z,16.93
2023-09-30T01:34:01.592Z,18.37
2023-09-30T01:35:01.234Z,17.27
2023-09-30T01:36:01.841Z,17.23
2023-09-30T01:37:01.437Z,17.60
2023-09-30T01:38:01.294Z,17.70
2023-09-30T01:39:01.313Z,17.07
2023-09-30T01:40:01.330Z,18.20
2023-09-30T01:41:01.818Z,17.70
2023-09-30T01:42:01.574Z,18.03
2023-09-30T01:43:01.238Z,17.13
2023-09-30T01:44:01.606Z,18.00
2023-09-30T01:45:01.863Z,16.87
2023-09-30T01:46:01.661Z,17.10
2023-09-30T01:47:01.624Z,16.67
2023-09-30T01:48:02.515Z,16.60
2023-09-30T01:49:01.582Z,19.67
2023-09-30T01:50:01.308Z,18.30
2023-09-30T01:51:01.713Z,17.80
2023-09-30T01:52:01.522Z,18.73
2023-09-30T01:53:01.640Z,18.67
2023-09-30T01:54:01.417Z,17.53
2023-09-30T01:55:01.293Z,16.50
2023-09-30T01:56:01.243Z,19.33
2023-09-30T01:57:01.658Z,17.57
2023-09-30T01:58:02.036Z,17.03
2023-09-30T01:59:01.596Z,16.73
2023-09-30T02:00:01.350Z,16.80
2023-09-30T02:01:03.413Z,16.47
2023-09-30T02:02:01.258Z,18.40
2023-09-30T02:03:01.651Z,17.80
2023-09-30T02:04:01.838Z,16.93
2023-09-30T02:05:01.587Z,18.77
2023-09-30T02:06:01.732Z,18.53
2023-09-30T02:07:01.288Z,17.37
2023-09-30T02:08:01.584Z,17.37
2023-09-30T02:09:01.587Z,16.80
2023-09-30T02:10:01.712Z,18.27
2023-09-30T02:11:01.643Z,18.53
2023-09-30T02:12:01.267Z,17.47
2023-09-30T02:13:01.892Z,17.30
2023-09-30T02:14:02.619Z,19.03
2023-09-30T02:15:03.707Z,17.40
2023-09-30T02:16:02.072Z,18.93
2023-09-30T02:17:01.693Z,16.20
2023-09-30T02:18:01.742Z,19.77
2023-09-30T02:19:01.303Z,17.93
2023-09-30T02:20:01.265Z,16.57
2023-09-30T02:21:01.558Z,16.30
2023-09-30T02:22:01.605Z,17.23
2023-09-30T02:23:01.276Z,17.33
2023-09-30T02:24:01.287Z,18.70
2023-09-30T02:25:01.792Z,17.60
2023-09-30T02:26:01.296Z,17.47
2023-09-30T02:27:01.311Z,16.27
2023-09-30T02:28:01.649Z,16.60
2023-09-30T02:29:01.598Z,16.73
2023-09-30T02:30:01.842Z,17.57
2023-09-30T02:31:01.827Z,16.33
2023-09-30T02:32:01.596Z,14.37
2023-09-30T02:33:02.002Z,16.40
2023-09-30T02:34:01.885Z,17.00
2023-09-30T02:35:01.400Z,17.00
2023-09-30T02:36:01.961Z,17.23
2023-09-30T02:37:01.320Z,17.00
2023-09-30T02:38:01.296Z,18.17
2023-09-30T02:39:01.247Z,17.83
2023-09-30T02:40:01.524Z,17.13
2023-09-30T02:41:01.285Z,16.47
2023-09-30T02:42:01.294Z,18.40
2023-09-30T02:43:01.301Z,17.40
2023-09-30T02:44:01.243Z,15.83
2023-09-30T02:45:01.357Z,15.47
2023-09-30T02:46:01.689Z,16.27
2023-09-30T02:47:01.441Z,17.33
2023-09-30T02:48:01.646Z,15.97
2023-09-30T02:49:01.884Z,14.13
2023-09-30T02:50:01.586Z,17.33
2023-09-30T02:51:01.662Z,17.13
2023-09-30T02:52:01.299Z,16.67
2023-09-30T02:53:01.297Z,16.73
2023-09-30T02:54:03.582Z,16.67
2023-09-30T02:55:01.881Z,16.60
2023-09-30T02:56:01.636Z,16.67
2023-09-30T02:57:01.633Z,16.77
2023-09-30T02:58:02.028Z,17.17
2023-09-30T02:59:01.610Z,16.97
2023-09-30T03:00:02.273Z,17.07
2023-09-30T03:01:01.542Z,15.83
2023-09-30T03:02:01.438Z,16.90
2023-09-30T03:03:02.629Z,17.73
2023-09-30T03:04:01.766Z,15.87
2023-09-30T03:05:01.265Z,17.10
2023-09-30T03:06:01.693Z,17.20
2023-09-30T03:07:01.294Z,16.43
2023-09-30T03:08:01.858Z,16.17
2023-09-30T03:09:01.850Z,14.23
2023-09-30T03:10:01.641Z,16.30
2023-09-30T03:11:01.249Z,15.97
2023-09-30T03:12:02.385Z,17.13
2023-09-30T03:13:01.248Z,16.03
2023-09-30T03:14:01.637Z,14.23
2023-09-30T03:15:01.276Z,16.13
2023-09-30T03:16:01.306Z,16.47
2023-09-30T03:17:01.621Z,15.93
2023-09-30T03:18:02.054Z,17.10
2023-09-30T03:19:01.641Z,16.30
2023-09-30T03:20:01.948Z,16.20
2023-09-30T03:21:02.401Z,15.30
2023-09-30T03:22:01.255Z,16.03
2023-09-30T03:23:01.250Z,15.17
2023-09-30T03:24:01.270Z,16.70
2023-09-30T03:25:01.805Z,15.80
2023-09-30T03:26:01.667Z,15.53
2023-09-30T03:27:01.292Z,15.30
2023-09-30T03:28:01.689Z,13.67
2023-09-30T03:29:02.080Z,16.33
2023-09-30T03:30:01.609Z,17.20
2023-09-30T03:31:01.886Z,16.60
2023-09-30T03:32:01.656Z,16.93
2023-09-30T03:33:01.302Z,16.67
2023-09-30T03:34:01.477Z,16.87
2023-09-30T03:35:01.609Z,16.87
2023-09-30T03:36:01.518Z,16.13
2023-09-30T03:37:01.246Z,15.67
2023-09-30T03:38:01.297Z,15.50
2023-09-30T03:39:01.674Z,16.53
2023-09-30T03:40:01.659Z,15.73
2023-09-30T03:41:01.623Z,15.10
2023-09-30T03:42:01.762Z,15.00
2023-09-30T03:43:01.717Z,15.97
2023-09-30T03:44:01.642Z,16.07
2023-09-30T03:45:01.680Z,16.60
2023-09-30T03:46:01.657Z,16.77
2023-09-30T03:47:01.715Z,15.53
2023-09-30T03:48:02.406Z,16.17
2023-09-30T03:49:01.578Z,15.83
2023-09-30T03:50:01.389Z,16.83
2023-09-30T03:51:07.946Z,17.13
2023-09-30T03:52:01.559Z,15.90
2023-09-30T03:53:02.979Z,15.03
2023-09-30T03:54:01.287Z,17.17
2023-09-30T03:55:01.642Z,15.97
2023-09-30T03:56:01.244Z,14.17
2023-09-30T03:57:01.238Z,16.23
2023-09-30T03:58:01.676Z,14.67
2023-09-30T03:59:01.724Z,15.37
2023-09-30T04:00:01.786Z,15.63
2023-09-30T04:01:01.433Z,15.30
2023-09-30T04:02:01.303Z,14.90
2023-09-30T04:03:01.442Z,16.20
2023-09-30T04:04:02.103Z,15.67
2023-09-30T04:05:01.682Z,15.57
2023-09-30T04:06:02.121Z,13.80
2023-09-30T04:07:01.258Z,15.60
2023-09-30T04:08:01.257Z,16.50
2023-09-30T04:09:01.336Z,15.43
2023-09-30T04:10:01.299Z,14.50
2023-09-30T04:11:01.803Z,14.47
2023-09-30T04:12:01.355Z,14.70
2023-09-30T04:13:01.685Z,15.07
2023-09-30T04:14:01.334Z,15.10
2023-09-30T04:15:01.897Z,15.07
2023-09-30T04:16:01.470Z,14.50
2023-09-30T04:17:01.742Z,16.13
2023-09-30T04:18:01.747Z,15.17
2023-09-30T04:19:01.299Z,15.20
2023-09-30T04:20:01.316Z,15.37
2023-09-30T04:21:01.605Z,14.50
2023-09-30T04:22:01.619Z,14.80
2023-09-30T04:23:01.571Z,14.70
2023-09-30T04:24:01.602Z,15.03
2023-09-30T04:25:01.732Z,14.83
2023-09-30T04:26:01.543Z,14.33
2023-09-30T04:27:01.560Z,14.17
2023-09-30T04:28:01.677Z,14.57
2023-09-30T04:29:01.647Z,15.00
2023-09-30T04:30:01.562Z,14.83
2023-09-30T04:31:01.676Z,14.80
2023-09-30T04:32:01.768Z,15.37
2023-09-30T04:33:01.862Z,14.53
2023-09-30T04:34:01.374Z,15.50
2023-09-30T04:35:01.316Z,14.57
2023-09-30T04:36:01.707Z,13.73
2023-09-30T04:37:01.773Z,15.10
2023-09-30T04:38:01.831Z,14.73
2023-09-30T04:39:01.954Z,14.00
2023-09-30T04:40:01.766Z,14.60
2023-09-30T04:41:01.291Z,16.77
2023-09-30T04:42:01.596Z,14.13
2023-09-30T04:43:01.252Z,14.97
2023-09-30T04:44:01.303Z,14.53
2023-09-30T04:45:01.295Z,15.77
2023-09-30T04:46:01.253Z,14.03
2023-09-30T04:47:01.262Z,14.60
2023-09-30T04:48:01.585Z,15.40
2023-09-30T04:49:01.567Z,15.50
2023-09-30T04:50:01.656Z,15.17
2023-09-30T04:51:01.610Z,14.37
2023-09-30T04:52:01.620Z,14.97
2023-09-30T04:53:01.255Z,14.83
2023-09-30T04:54:01.676Z,15.40
2023-09-30T04:55:01.711Z,15.30
2023-09-30T04:56:02.865Z,14.33
2023-09-30T04:57:01.712Z,14.03
2023-09-30T04:58:01.667Z,14.23
2023-09-30T04:59:02.460Z,14.33
2023-09-30T05:00:01.701Z,14.50
2023-09-30T05:01:01.805Z,13.37
2023-09-30T05:02:01.637Z,12.50
2023-09-30T05:03:02.008Z,13.33
2023-09-30T05:04:02.087Z,14.57
2023-09-30T05:05:01.248Z,14.70
2023-09-30T05:06:01.662Z,13.80
2023-09-30T05:07:01.311Z,14.30
2023-09-30T05:08:01.844Z,14.40
2023-09-30T05:09:01.676Z,13.77
2023-09-30T05:10:03.947Z,14.33
2023-09-30T05:11:01.624Z,15.70
2023-09-30T05:12:01.245Z,13.77
2023-09-30T05:13:01.664Z,15.77
2023-09-30T05:14:01.726Z,15.30
2023-09-30T05:15:01.589Z,14.40
2023-09-30T05:16:01.706Z,14.07
2023-09-30T05:17:01.847Z,13.80
2023-09-30T05:18:01.824Z,15.23
2023-09-30T05:19:01.611Z,14.93
2023-09-30T05:20:01.740Z,14.47
2023-09-30T05:21:01.909Z,13.63
2023-09-30T05:22:01.272Z,14.60
2023-09-30T05:23:01.298Z,16.83
2023-09-30T05:24:01.590Z,16.13
2023-09-30T05:25:01.307Z,15.70
2023-09-30T05:26:01.572Z,14.77
2023-09-30T05:27:01.413Z,16.23
2023-09-30T05:28:03.234Z,15.17
2023-09-30T05:29:01.649Z,14.77
2023-09-30T05:30:01.822Z,15.13
2023-09-30T05:31:01.309Z,14.63
2023-09-30T05:32:01.531Z,15.60
2023-09-30T05:33:02.029Z,14.37
2023-09-30T05:34:02.028Z,15.13
2023-09-30T05:35:01.282Z,13.63
2023-09-30T05:36:01.759Z,15.00
2023-09-30T05:37:01.695Z,13.70
2023-09-30T05:38:01.615Z,13.47
2023-09-30T05:39:01.628Z,15.40
2023-09-30T05:40:01.605Z,15.10
2023-09-30T05:41:01.342Z,14.93
2023-09-30T05:42:01.744Z,15.00
2023-09-30T05:43:01.862Z,13.13
2023-09-30T05:44:01.301Z,14.20
2023-09-30T05:45:01.339Z,15.13
2023-09-30T05:46:02.469Z,15.00
2023-09-30T05:47:01.230Z,13.97
2023-09-30T05:48:03.204Z,15.17
2023-09-30T05:49:01.392Z,14.37
2023-09-30T05:50:02.173Z,14.43
2023-09-30T05:51:01.269Z,13.67
2023-09-30T05:52:01.301Z,13.87
2023-09-30T05:53:01.324Z,14.73
2023-09-30T05:54:01.428Z,14.80
2023-09-30T05:55:02.748Z,15.27
2023-09-30T05:56:04.169Z,14.57
2023-09-30T05:57:01.337Z,14.37
2023-09-30T05:58:01.795Z,16.13
2023-09-30T05:59:01.606Z,16.47
2023-09-30T06:00:01.829Z,15.50
2023-09-30T06:01:01.763Z,15.83
2023-09-30T06:02:01.268Z,14.60
2023-09-30T06:03:02.026Z,15.50
2023-09-30T06:04:01.462Z,15.20
2023-09-30T06:05:01.540Z,15.87
2023-09-30T06:06:01.585Z,15.40
2023-09-30T06:07:01.237Z,16.93
2023-09-30T06:08:04.058Z,13.97
2023-09-30T06:09:01.629Z,15.10
2023-09-30T06:10:01.233Z,16.20
2023-09-30T06:11:01.619Z,16.63
2023-09-30T06:12:01.300Z,15.23
2023-09-30T06:13:01.643Z,16.27
2023-09-30T06:14:01.892Z,15.67
2023-09-30T06:15:02.305Z,15.50
2023-09-30T06:16:01.526Z,15.97
2023-09-30T06:17:01.284Z,16.37
2023-09-30T06:18:02.000Z,16.77
2023-09-30T06:19:01.335Z,15.63
2023-09-30T06:20:04.822Z,15.27
2023-09-30T06:21:01.674Z,14.07
2023-09-30T06:22:01.586Z,16.83
2023-09-30T06:23:01.870Z,15.47
2023-09-30T06:24:01.311Z,17.07
2023-09-30T06:25:01.849Z,17.13
2023-09-30T06:26:01.586Z,16.10
2023-09-30T06:27:01.517Z,16.83
2023-09-30T06:28:01.288Z,16.03
2023-09-30T06:29:01.558Z,16.27
2023-09-30T06:30:01.250Z,15.97
2023-09-30T06:31:01.316Z,14.97
2023-09-30T06:32:01.625Z,16.00
2023-09-30T06:33:02.477Z,16.03
2023-09-30T06:34:01.352Z,16.43
2023-09-30T06:35:02.558Z,17.03
2023-09-30T06:36:01.316Z,16.47
2023-09-30T06:37:01.290Z,16.73
2023-09-30T06:38:01.779Z,17.20
2023-09-30T06:39:01.252Z,16.90
2023-09-30T06:40:01.885Z,16.37
2023-09-30T06:41:01.290Z,18.07
2023-09-30T06:42:01.583Z,17.73
2023-09-30T06:43:01.686Z,15.30
2023-09-30T06:44:01.562Z,17.83
2023-09-30T06:45:02.191Z,16.37
2023-09-30T06:46:06.994Z,16.20
2023-09-30T06:47:01.286Z,15.70
2023-09-30T06:48:01.402Z,17.60
2023-09-30T06:49:01.982Z,15.53
2023-09-30T06:50:02.326Z,16.40
2023-09-30T06:51:01.880Z,16.70
2023-09-30T06:52:01.235Z,16.23
2023-09-30T06:53:01.397Z,17.63
2023-09-30T06:54:01.253Z,14.53
2023-09-30T06:55:01.288Z,14.60
2023-09-30T06:56:05.645Z,15.77
2023-09-30T06:57:01.579Z,15.90
2023-09-30T06:58:01.704Z,17.03
2023-09-30T06:59:01.818Z,17.97
2023-09-30T07:00:01.904Z,17.40
2023-09-30T07:01:01.646Z,17.33
2023-09-30T07:02:01.346Z,16.83
2023-09-30T07:03:01.375Z,16.90
2023-09-30T07:04:01.356Z,16.67
2023-09-30T07:05:01.565Z,15.77
2023-09-30T07:06:01.730Z,16.67
2023-09-30T07:07:01.636Z,16.83
2023-09-30T07:08:01.389Z,16.97
2023-09-30T07:09:01.618Z,16.73
2023-09-30T07:10:01.770Z,17.00
2023-09-30T07:11:01.868Z,16.87
2023-09-30T07:12:01.327Z,16.03
2023-09-30T07:13:02.898Z,17.50
2023-09-30T07:14:01.848Z,16.60
2023-09-30T07:15:01.814Z,17.07
2023-09-30T07:16:01.467Z,16.27
2023-09-30T07:17:01.689Z,17.70
2023-09-30T07:18:01.669Z,17.87
2023-09-30T07:19:01.628Z,16.73
2023-09-30T07:20:01.408Z,15.80
2023-09-30T07:21:01.290Z,17.03
2023-09-30T07:22:05.069Z,16.27
2023-09-30T07:23:15.778Z,17.33
2023-09-30T07:24:01.362Z,17.17
2023-09-30T07:25:01.935Z,15.07
2023-09-30T07:26:01.593Z,16.93
2023-09-30T07:27:03.106Z,15.47
2023-09-30T07:28:02.225Z,16.43
2023-09-30T07:29:01.597Z,17.27
2023-09-30T07:30:01.577Z,15.90
2023-09-30T07:31:01.422Z,14.60
2023-09-30T07:32:01.368Z,14.07
2023-09-30T07:33:01.662Z,15.70
2023-09-30T07:34:02.401Z,15.87
2023-09-30T07:35:01.340Z,15.27
2023-09-30T07:36:01.611Z,15.13
2023-09-30T07:37:01.750Z,12.97
2023-09-30T07:38:01.647Z,15.27
2023-09-30T07:39:01.592Z,14.90
2023-09-30T07:40:01.950Z,14.80
2023-09-30T07:41:01.243Z,14.50
2023-09-30T07:42:01.853Z,15.53
2023-09-30T07:43:01.705Z,15.13
2023-09-30T07:44:01.772Z,15.20
2023-09-30T07:45:01.618Z,14.60
2023-09-30T07:46:06.052Z,13.63
2023-09-30T07:47:01.776Z,13.73
2023-09-30T07:48:01.299Z,13.93
2023-09-30T07:49:01.729Z,13.83
2023-09-30T07:50:02.069Z,14.07
2023-09-30T07:51:01.734Z,14.50
2023-09-30T07:52:01.741Z,12.77
2023-09-30T07:53:01.703Z,13.50
2023-09-30T07:54:13.964Z,15.00
2023-09-30T07:55:02.216Z,13.23
2023-09-30T07:56:01.727Z,13.93
2023-09-30T07:57:01.267Z,13.83
2023-09-30T07:58:01.767Z,13.93
2023-09-30T07:59:01.631Z,14.07
2023-09-30T08:00:01.328Z,14.20
2023-09-30T08:01:01.700Z,15.13
2023-09-30T08:02:02.453Z,11.80
2023-09-30T08:03:02.312Z,15.50
2023-09-30T08:04:01.323Z,14.80
2023-09-30T08:05:01.274Z,13.80
2023-09-30T08:06:03.261Z,14.83
2023-09-30T08:07:01.245Z,13.73
2023-09-30T08:08:02.828Z,14.97
2023-09-30T08:09:01.232Z,13.53
2023-09-30T08:10:01.723Z,16.10
2023-09-30T08:11:01.723Z,14.30
2023-09-30T08:12:01.301Z,14.47
2023-09-30T08:13:01.308Z,14.97
2023-09-30T08:14:01.282Z,14.03
2023-09-30T08:15:01.723Z,13.37
2023-09-30T08:16:01.823Z,14.63
2023-09-30T08:17:01.616Z,14.37
2023-09-30T08:18:03.045Z,13.93
2023-09-30T08:19:01.918Z,13.83
2023-09-30T08:20:01.667Z,15.47
2023-09-30T08:21:01.345Z,14.03
2023-09-30T08:22:01.685Z,14.63
2023-09-30T08:23:01.290Z,13.70
2023-09-30T08:24:02.793Z,13.43
2023-09-30T08:25:01.847Z,12.90
2023-09-30T08:26:01.286Z,15.63
2023-09-30T08:27:01.986Z,15.07
2023-09-30T08:28:01.608Z,15.57
2023-09-30T08:29:01.958Z,15.73
2023-09-30T08:30:01.709Z,14.83
2023-09-30T08:31:03.547Z,14.23
2023-09-30T08:32:01.355Z,14.03
2023-09-30T08:33:02.474Z,15.30
2023-09-30T08:34:01.337Z,16.83
2023-09-30T08:35:02.433Z,14.83
2023-09-30T08:36:02.886Z,14.73
2023-09-30T08:37:01.703Z,15.57
2023-09-30T08:38:01.577Z,15.97
2023-09-30T08:39:01.929Z,15.83
2023-09-30T08:40:01.520Z,15.20
2023-09-30T08:41:02.014Z,16.40
2023-09-30T08:42:02.033Z,15.83
2023-09-30T08:43:04.497Z,16.33
2023-09-30T08:44:02.271Z,16.10
2023-09-30T08:45:01.654Z,15.30
2023-09-30T08:46:04.163Z,15.20
2023-09-30T08:47:01.810Z,15.50
2023-09-30T08:48:02.019Z,16.00
2023-09-30T08:49:03.503Z,14.93
2023-09-30T08:50:06.415Z,14.17
2023-09-30T08:51:02.654Z,16.93
2023-09-30T08:52:03.338Z,15.50
2023-09-30T08:53:03.423Z,18.03
2023-09-30T08:54:01.706Z,15.27
2023-09-30T08:55:02.255Z,16.37
2023-09-30T08:56:03.505Z,15.57
2023-09-30T08:57:03.403Z,14.00
2023-09-30T08:58:02.668Z,15.70
2023-09-30T08:59:03.278Z,15.50
2023-09-30T09:00:02.049Z,15.80
2023-09-30T09:01:01.959Z,15.87
2023-09-30T09:02:01.694Z,16.37
2023-09-30T09:03:02.477Z,16.07
2023-09-30T09:04:01.350Z,16.00
2023-09-30T09:05:02.385Z,15.00
2023-09-30T09:06:01.618Z,16.10
2023-09-30T09:07:01.625Z,16.50
2023-09-30T09:08:01.251Z,16.47
2023-09-30T09:09:14.181Z,15.83
2023-09-30T09:10:04.232Z,16.17
2023-09-30T09:11:01.273Z,15.80
2023-09-30T09:12:02.016Z,17.53
2023-09-30T09:13:01.717Z,18.00
2023-09-30T09:14:01.306Z,16.53
2023-09-30T09:15:02.403Z,17.33
2023-09-30T09:16:09.409Z,17.80
2023-09-30T09:17:01.366Z,15.97
2023-09-30T09:18:01.312Z,16.77
2023-09-30T09:19:14.282Z,15.50
2023-09-30T09:20:01.763Z,17.27
2023-09-30T09:21:09.892Z,17.20
2023-09-30T09:22:03.628Z,17.83
2023-09-30T09:23:01.799Z,18.83
2023-09-30T09:24:01.629Z,18.60
2023-09-30T09:25:01.413Z,20.37
2023-09-30T09:26:01.316Z,20.63
2023-09-30T09:27:04.894Z,20.30
2023-09-30T09:28:01.393Z,19.87
2023-09-30T09:29:03.666Z,19.03
2023-09-30T09:30:15.857Z,19.43
2023-09-30T09:31:01.844Z,19.93
2023-09-30T09:32:10.745Z,19.30
2023-09-30T09:33:03.250Z,19.03
2023-09-30T09:34:02.334Z,19.20
2023-09-30T09:35:02.060Z,18.70
2023-09-30T09:36:01.576Z,18.43
2023-09-30T09:37:13.262Z,17.70
2023-09-30T09:38:02.649Z,19.53
2023-09-30T09:39:01.271Z,18.53
2023-09-30T09:40:01.367Z,18.00
2023-09-30T09:41:01.308Z,18.83
2023-09-30T09:42:01.610Z,18.20
2023-09-30T09:43:02.933Z,18.30
2023-09-30T09:44:01.271Z,18.77
2023-09-30T09:45:03.777Z,18.87
2023-09-30T09:46:03.039Z,19.10
2023-09-30T09:47:06.334Z,19.40
2023-09-30T09:48:01.867Z,18.57
2023-09-30T09:49:01.382Z,18.63
2023-09-30T09:50:04.356Z,18.27
2023-09-30T09:51:02.022Z,17.57
2023-09-30T09:52:02.740Z,20.00
2023-09-30T09:53:02.100Z,18.67
2023-09-30T09:54:04.539Z,17.43
2023-09-30T09:55:02.517Z,18.00
2023-09-30T09:56:03.191Z,18.70
2023-09-30T09:57:04.699Z,17.63
2023-09-30T09:58:02.943Z,18.63
2023-09-30T09:59:04.607Z,17.70
2023-09-30T10:00:02.547Z,18.10
2023-09-30T10:01:02.450Z,18.80
2023-09-30T10:02:03.464Z,17.20
2023-09-30T10:03:03.034Z,17.37
2023-09-30T10:04:01.980Z,17.97
2023-09-30T10:05:03.883Z,16.00
2023-09-30T10:06:02.272Z,16.63
2023-09-30T10:07:01.983Z,16.17
2023-09-30T10:08:05.792Z,15.93
2023-09-30T10:09:02.834Z,17.13
2023-09-30T10:10:05.733Z,17.23
2023-09-30T10:11:02.358Z,17.83
2023-09-30T10:12:02.204Z,14.87
2023-09-30T10:13:01.283Z,16.80
2023-09-30T10:14:01.610Z,16.20
2023-09-30T10:15:02.035Z,16.37
2023-09-30T10:16:01.692Z,17.33
2023-09-30T10:17:01.932Z,16.73
2023-09-30T10:18:03.849Z,16.53
2023-09-30T10:19:09.155Z,16.53
2023-09-30T10:20:06.513Z,16.80
2023-09-30T10:21:08.572Z,14.87
2023-09-30T10:22:22.231Z,15.47
2023-09-30T10:23:19.719Z,16.13
2023-09-30T10:24:22.271Z,16.57
2023-09-30T10:25:12.215Z,15.03
2023-09-30T10:26:14.509Z,16.10
2023-09-30T10:27:22.238Z,15.57
2023-09-30T10:28:22.217Z,16.03
2023-09-30T10:29:09.412Z,16.33
2023-09-30T10:30:10.303Z,15.20
2023-09-30T10:31:11.624Z,15.53
2023-09-30T10:32:01.643Z,16.07
2023-09-30T10:33:09.258Z,16.07
2023-09-30T10:34:20.078Z,15.37
2023-09-30T10:35:02.137Z,16.33
2023-09-30T10:36:02.122Z,15.63
2023-09-30T10:37:22.246Z,15.07
2023-09-30T10:38:22.211Z,15.37
2023-09-30T10:39:02.944Z,15.63
2023-09-30T10:40:01.652Z,15.53
2023-09-30T10:41:01.750Z,14.43
2023-09-30T10:42:01.308Z,14.47
2023-09-30T10:43:01.421Z,15.70
2023-09-30T10:44:22.212Z,14.13
2023-09-30T10:45:01.299Z,15.60
2023-09-30T10:46:02.450Z,15.77
2023-09-30T10:47:22.542Z,14.50
2023-09-30T10:48:22.264Z,15.53
2023-09-30T10:49:15.342Z,14.40
2023-09-30T10:50:01.628Z,15.50
2023-09-30T10:51:10.014Z,15.97
2023-09-30T10:52:01.939Z,15.87
2023-09-30T10:53:06.463Z,14.40
2023-09-30T10:54:02.213Z,14.90
2023-09-30T10:55:03.221Z,14.80
2023-09-30T10:56:01.313Z,14.27
2023-09-30T10:57:01.331Z,15.20
2023-09-30T10:58:01.632Z,15.47
2023-09-30T10:59:01.613Z,13.30
2023-09-30T11:00:08.078Z,14.17
2023-09-30T11:01:01.674Z,15.50
2023-09-30T11:02:01.527Z,14.00
2023-09-30T11:03:03.176Z,14.47
2023-09-30T11:04:04.415Z,14.90
2023-09-30T11:05:08.619Z,15.43
2023-09-30T11:06:12.276Z,15.20
2023-09-30T11:07:02.503Z,15.60
2023-09-30T11:08:03.191Z,14.63
2023-09-30T11:09:02.206Z,13.90
2023-09-30T11:10:02.165Z,14.47
2023-09-30T11:11:01.788Z,14.43
2023-09-30T11:12:01.323Z,14.50
2023-09-30T11:13:01.278Z,14.87
2023-09-30T11:14:01.783Z,13.13
2023-09-30T11:15:03.178Z,13.63
2023-09-30T11:16:01.952Z,14.50
2023-09-30T11:17:02.954Z,16.20
2023-09-30T11:18:13.425Z,13.77
2023-09-30T11:19:01.634Z,14.03
2023-09-30T11:20:04.326Z,12.60
2023-09-30T11:21:06.517Z,13.93
2023-09-30T11:22:01.750Z,14.77
2023-09-30T11:23:01.390Z,15.43
2023-09-30T11:24:02.007Z,13.83
2023-09-30T11:25:01.444Z,14.07
2023-09-30T11:26:01.988Z,15.57
2023-09-30T11:27:01.256Z,15.10
2023-09-30T11:28:13.242Z,13.47
2023-09-30T11:29:05.602Z,14.33
2023-09-30T11:30:03.411Z,14.20
2023-09-30T11:31:02.829Z,14.03
2023-09-30T11:32:01.633Z,12.70
2023-09-30T11:33:01.835Z,14.80
2023-09-30T11:34:01.435Z,14.77
2023-09-30T11:35:01.543Z,14.37
2023-09-30T11:36:03.132Z,15.93
2023-09-30T11:37:02.392Z,14.00
2023-09-30T11:38:01.260Z,14.83
2023-09-30T11:39:03.689Z,14.63
2023-09-30T11:40:10.782Z,15.23
2023-09-30T11:41:02.111Z,12.97
2023-09-30T11:42:01.657Z,14.97
2023-09-30T11:43:09.772Z,15.07
2023-09-30T11:44:03.454Z,14.53
2023-09-30T11:45:01.249Z,14.67
2023-09-30T11:46:05.685Z,14.73
2023-09-30T11:47:02.890Z,14.07
2023-09-30T11:48:01.777Z,14.37
2023-09-30T11:49:02.720Z,14.07
2023-09-30T11:50:01.636Z,15.63
2023-09-30T11:51:01.675Z,14.87
2023-09-30T11:52:03.437Z,15.73
2023-09-30T11:53:01.672Z,16.73
2023-09-30T11:54:01.357Z,12.90
2023-09-30T11:55:06.240Z,16.67
2023-09-30T11:56:02.120Z,15.57
2023-09-30T11:57:01.874Z,16.07
2023-09-30T11:58:01.403Z,16.23
2023-09-30T11:59:03.010Z,14.30
2023-09-30T12:00:04.375Z,15.27
2023-09-30T12:01:01.704Z,16.77
2023-09-30T12:02:14.210Z,14.23
2023-09-30T12:03:01.626Z,15.67
2023-09-30T12:04:01.733Z,14.17
2023-09-30T12:05:01.596Z,14.27
2023-09-30T12:06:01.420Z,17.13
2023-09-30T12:07:01.774Z,13.33
2023-09-30T12:08:01.251Z,15.13
2023-09-30T12:09:01.664Z,13.70
2023-09-30T12:10:01.717Z,15.07
2023-09-30T12:11:01.615Z,15.60
2023-09-30T12:12:01.886Z,15.50
2023-09-30T12:13:01.644Z,13.87
2023-09-30T12:14:01.603Z,15.97
2023-09-30T12:15:01.613Z,16.33
2023-09-30T12:16:01.694Z,15.50
2023-09-30T12:17:01.559Z,15.37
2023-09-30T12:18:01.646Z,17.50
2023-09-30T12:19:01.380Z,16.57
2023-09-30T12:20:01.293Z,14.90
2023-09-30T12:21:01.619Z,16.03
2023-09-30T12:22:01.795Z,14.73
2023-09-30T12:23:01.685Z,14.57
2023-09-30T12:24:01.691Z,14.97
2023-09-30T12:25:01.264Z,13.00
2023-09-30T12:26:11.558Z,15.90
2023-09-30T12:27:01.611Z,16.07
2023-09-30T12:28:01.638Z,15.87
2023-09-30T12:29:01.296Z,15.87
2023-09-30T12:30:01.297Z,17.53
2023-09-30T12:31:01.834Z,19.27
2023-09-30T12:32:01.370Z,18.97
2023-09-30T12:33:01.701Z,16.77
2023-09-30T12:34:01.693Z,16.03
2023-09-30T12:35:01.742Z,16.37
2023-09-30T12:36:01.287Z,15.97
2023-09-30T12:37:01.852Z,15.20
2023-09-30T12:38:01.660Z,15.63
2023-09-30T12:39:01.789Z,16.90
2023-09-30T12:40:01.331Z,15.33
2023-09-30T12:41:01.299Z,15.93
2023-09-30T12:42:01.621Z,16.97
2023-09-30T12:43:01.337Z,15.67
2023-09-30T12:44:01.253Z,15.27
2023-09-30T12:45:01.872Z,15.00
2023-09-30T12:46:01.724Z,14.07
2023-09-30T12:47:01.794Z,14.20
2023-09-30T12:48:01.665Z,15.70
2023-09-30T12:49:02.440Z,14.60
2023-09-30T12:50:01.563Z,17.83
2023-09-30T12:51:01.754Z,18.53
2023-09-30T12:52:01.633Z,16.87